createdAt,value
2017-10-14T00:00:08.772Z,16.61
2017-10-14T00:01:08.813Z,16.64
2017-10-14T00:03:01.807Z,16.65
2017-10-14T00:04:01.866Z,16.49
2017-10-14T00:05:54.882Z,16.50
2017-10-14T00:06:54.921Z,16.43
2017-10-14T00:08:47.916Z,16.49
2017-10-14T00:09:47.976Z,16.57
2017-10-14T00:11:40.987Z,16.56
2017-10-14T00:12:41.029Z,16.49
2017-10-14T00:14:34.044Z,16.51
2017-10-14T00:15:34.085Z,16.53
2017-10-14T00:17:27.078Z,16.49
2017-10-14T00:18:27.140Z,16.46
2017-10-14T00:20:20.155Z,16.46
2017-10-14T00:21:20.198Z,16.47
2017-10-14T00:23:13.192Z,16.36
2017-10-14T00:24:13.257Z,16.43
2017-10-14T00:26:06.270Z,16.47
2017-10-14T00:27:06.309Z,16.47
2017-10-14T00:28:59.302Z,16.51
2017-10-14T00:29:59.365Z,16.43
2017-10-14T00:31:52.376Z,16.47
2017-10-14T00:32:52.421Z,16.43
2017-10-14T00:34:45.434Z,16.53
2017-10-14T00:35:45.487Z,16.53
2017-10-14T00:37:38.468Z,16.47
2017-10-14T00:38:38.530Z,16.51
2017-10-14T00:40:31.540Z,16.54
2017-10-14T00:41:31.582Z,16.51
2017-10-14T00:43:24.573Z,16.49
2017-10-14T00:44:24.638Z,16.50
2017-10-14T00:46:17.649Z,16.51
2017-10-14T00:47:17.689Z,16.56
2017-10-14T00:49:10.682Z,16.57
2017-10-14T00:50:10.744Z,16.60
2017-10-14T00:52:03.757Z,16.57
2017-10-14T00:53:03.796Z,16.56
2017-10-14T00:54:56.807Z,16.57
2017-10-14T00:55:56.854Z,16.51
2017-10-14T00:57:49.841Z,16.47
2017-10-14T00:58:49.901Z,16.53
2017-10-14T01:00:42.913Z,16.54
2017-10-14T01:01:42.956Z,16.60
2017-10-14T01:03:35.948Z,16.60
2017-10-14T01:04:36.007Z,16.65
2017-10-14T01:06:29.018Z,16.64
2017-10-14T01:07:29.060Z,16.65
2017-10-14T01:09:22.052Z,16.69
2017-10-14T01:10:22.113Z,16.65
2017-10-14T01:12:15.127Z,16.66
2017-10-14T01:13:15.170Z,16.64
2017-10-14T01:15:08.179Z,16.64
2017-10-14T01:16:08.221Z,16.61
2017-10-14T01:18:01.212Z,16.69
2017-10-14T01:19:01.274Z,16.60
2017-10-14T01:20:54.286Z,16.65
2017-10-14T01:21:54.329Z,16.64
2017-10-14T01:23:47.325Z,16.54
2017-10-14T01:24:47.388Z,16.56
2017-10-14T01:26:40.912Z,16.51
2017-10-14T01:27:40.949Z,16.49
2017-10-14T01:29:33.940Z,16.49
2017-10-14T01:30:34.003Z,16.51
2017-10-14T01:32:27.016Z,16.54
2017-10-14T01:33:27.057Z,16.54
2017-10-14T01:35:20.069Z,16.46
2017-10-14T01:36:20.111Z,16.50
2017-10-14T01:38:13.102Z,16.51
2017-10-14T01:39:13.164Z,16.47
2017-10-14T01:41:06.175Z,16.51
2017-10-14T01:42:06.218Z,16.50
2017-10-14T01:43:59.210Z,16.49
2017-10-14T01:44:59.274Z,16.53
2017-10-14T01:46:52.284Z,16.51
2017-10-14T01:47:52.326Z,16.50
2017-10-14T01:49:45.319Z,16.43
2017-10-14T01:50:45.383Z,16.49
2017-10-14T01:52:38.400Z,16.43
2017-10-14T01:53:38.435Z,16.47
2017-10-14T01:55:31.458Z,16.53
2017-10-14T01:56:31.488Z,16.53
2017-10-14T01:58:24.482Z,16.43
2017-10-14T01:59:24.546Z,16.43
2017-10-14T02:01:17.558Z,16.42
2017-10-14T02:02:17.603Z,16.36
2017-10-14T02:04:10.593Z,16.36
2017-10-14T02:05:10.656Z,16.39
2017-10-14T02:07:03.668Z,16.41
2017-10-14T02:08:03.709Z,16.43
2017-10-14T02:09:56.701Z,16.36
2017-10-14T02:10:56.762Z,16.38
2017-10-14T02:12:49.773Z,16.41
2017-10-14T02:13:49.816Z,16.36
2017-10-14T02:15:42.826Z,16.32
2017-10-14T02:16:42.870Z,16.38
2017-10-14T02:18:35.861Z,16.41
2017-10-14T02:19:35.919Z,16.41
2017-10-14T02:21:28.931Z,16.28
2017-10-14T02:22:28.973Z,16.43
2017-10-14T02:24:21.967Z,16.46
2017-10-14T02:25:22.028Z,16.42
2017-10-14T02:27:15.552Z,16.43
2017-10-14T02:28:15.595Z,16.35
2017-10-14T02:30:08.580Z,16.38
2017-10-14T02:31:08.639Z,16.33
2017-10-14T02:33:01.651Z,16.29
2017-10-14T02:34:01.693Z,16.29
2017-10-14T02:35:54.703Z,16.26
2017-10-14T02:36:54.746Z,16.29
2017-10-14T02:38:47.737Z,16.26
2017-10-14T02:39:47.800Z,16.16
2017-10-14T02:41:40.814Z,16.21
2017-10-14T02:42:40.853Z,16.15
2017-10-14T02:44:33.847Z,16.12
2017-10-14T02:45:33.907Z,16.15
2017-10-14T02:47:26.919Z,16.10
2017-10-14T02:48:26.959Z,16.04
2017-10-14T02:50:19.952Z,16.05
2017-10-14T02:51:20.012Z,15.97
2017-10-14T02:53:13.024Z,16.05
2017-10-14T02:54:13.069Z,15.92
2017-10-14T02:56:06.082Z,15.91
2017-10-14T02:57:06.121Z,15.92
2017-10-14T02:58:59.120Z,15.97
2017-10-14T02:59:59.184Z,15.90
2017-10-14T03:01:52.196Z,15.82
2017-10-14T03:02:52.234Z,15.91
2017-10-14T03:04:45.225Z,15.86
2017-10-14T03:05:45.289Z,15.91
2017-10-14T03:07:38.299Z,15.77
2017-10-14T03:08:38.341Z,15.79
2017-10-14T03:10:31.333Z,15.79
2017-10-14T03:11:31.392Z,15.76
2017-10-14T03:13:24.404Z,15.64
2017-10-14T03:14:24.444Z,15.73
2017-10-14T03:16:17.455Z,15.70
2017-10-14T03:17:17.503Z,15.72
2017-10-14T03:19:10.492Z,15.72
2017-10-14T03:20:10.551Z,15.65
2017-10-14T03:22:03.565Z,15.70
2017-10-14T03:23:03.603Z,15.72
2017-10-14T03:24:56.592Z,15.68
2017-10-14T03:25:56.661Z,15.67
2017-10-14T03:27:49.666Z,15.67
2017-10-14T03:28:49.704Z,15.61
2017-10-14T03:30:42.698Z,15.62
2017-10-14T03:31:42.758Z,15.65
2017-10-14T03:33:35.766Z,15.54
2017-10-14T03:34:35.808Z,15.55
2017-10-14T03:36:28.819Z,15.54
2017-10-14T03:37:28.859Z,15.52
2017-10-14T03:39:21.851Z,15.52
2017-10-14T03:40:21.912Z,15.55
2017-10-14T03:42:14.923Z,15.52
2017-10-14T03:43:14.983Z,15.47
2017-10-14T03:45:07.967Z,15.47
2017-10-14T03:46:08.016Z,15.44
2017-10-14T03:48:01.027Z,15.47
2017-10-14T03:49:01.068Z,15.40
2017-10-14T03:50:54.063Z,15.44
2017-10-14T03:51:54.126Z,15.43
2017-10-14T03:53:47.136Z,15.44
2017-10-14T03:54:47.178Z,15.46
2017-10-14T03:56:40.191Z,15.42
2017-10-14T03:57:40.232Z,15.47
2017-10-14T03:59:33.228Z,15.43
2017-10-14T04:00:33.285Z,15.36
2017-10-14T04:02:26.297Z,15.43
2017-10-14T04:03:26.337Z,15.35
2017-10-14T04:05:19.328Z,15.40
2017-10-14T04:06:19.395Z,15.29
2017-10-14T04:08:12.399Z,15.27
2017-10-14T04:09:12.441Z,15.22
2017-10-14T04:11:05.431Z,15.24
2017-10-14T04:12:05.492Z,15.25
2017-10-14T04:13:58.511Z,15.28
2017-10-14T04:14:58.553Z,15.28
2017-10-14T04:16:51.560Z,15.19
2017-10-14T04:17:51.602Z,15.28
2017-10-14T04:19:44.592Z,15.10
2017-10-14T04:20:44.658Z,15.10
2017-10-14T04:22:37.667Z,15.11
2017-10-14T04:23:37.710Z,15.10
2017-10-14T04:25:30.698Z,15.09
2017-10-14T04:26:30.774Z,15.14
2017-10-14T04:28:23.770Z,15.10
2017-10-14T04:29:23.811Z,15.15
2017-10-14T04:31:16.800Z,15.03
2017-10-14T04:32:16.861Z,15.10
2017-10-14T04:34:09.899Z,15.15
2017-10-14T04:35:09.941Z,15.21
2017-10-14T04:37:02.951Z,15.18
2017-10-14T04:38:02.993Z,15.09
2017-10-14T04:39:55.983Z,15.03
2017-10-14T04:40:56.048Z,15.09
2017-10-14T04:42:49.057Z,15.02
2017-10-14T04:43:49.098Z,15.07
2017-10-14T04:45:42.088Z,15.10
2017-10-14T04:46:42.148Z,15.06
2017-10-14T04:48:35.158Z,15.02
2017-10-14T04:49:35.198Z,14.97
2017-10-14T04:51:28.190Z,14.94
2017-10-14T04:52:28.252Z,14.89
2017-10-14T04:54:21.260Z,14.92
2017-10-14T04:55:21.301Z,14.91
2017-10-14T04:57:14.312Z,14.77
2017-10-14T04:58:14.352Z,14.78
2017-10-14T05:00:07.345Z,14.73
2017-10-14T05:01:07.405Z,14.60
2017-10-14T05:03:00.414Z,14.72
2017-10-14T05:04:00.457Z,14.66
2017-10-14T05:05:53.448Z,14.60
2017-10-14T05:06:53.508Z,14.63
2017-10-14T05:08:46.524Z,14.63
2017-10-14T05:09:46.567Z,14.59
2017-10-14T05:11:39.562Z,14.66
2017-10-14T05:12:39.626Z,14.63
2017-10-14T05:14:32.636Z,14.65
2017-10-14T05:15:32.677Z,14.54
2017-10-14T05:17:25.697Z,14.58
2017-10-14T05:18:25.731Z,14.63
2017-10-14T05:20:18.718Z,14.59
2017-10-14T05:21:18.781Z,14.59
2017-10-14T05:23:11.794Z,14.68
2017-10-14T05:24:11.837Z,14.59
2017-10-14T05:26:04.827Z,14.62
2017-10-14T05:27:04.889Z,14.62
2017-10-14T05:28:57.897Z,14.58
2017-10-14T05:29:57.939Z,14.55
2017-10-14T05:31:50.931Z,14.60
2017-10-14T05:32:50.993Z,14.65
2017-10-14T05:34:44.002Z,14.65
2017-10-14T05:35:44.043Z,14.60
2017-10-14T05:37:37.059Z,14.69
2017-10-14T05:38:37.096Z,14.54
2017-10-14T05:40:30.085Z,14.63
2017-10-14T05:41:30.148Z,14.58
2017-10-14T05:43:23.156Z,14.51
2017-10-14T05:44:23.197Z,14.44
2017-10-14T05:46:16.185Z,14.55
2017-10-14T05:47:16.248Z,14.60
2017-10-14T05:49:09.262Z,14.59
2017-10-14T05:50:09.307Z,14.63
2017-10-14T05:52:02.295Z,14.63
2017-10-14T05:53:02.353Z,14.62
2017-10-14T05:54:55.362Z,14.65
2017-10-14T05:55:55.405Z,14.58
2017-10-14T05:57:48.411Z,14.65
2017-10-14T05:58:48.453Z,14.59
2017-10-14T06:00:41.445Z,14.54
2017-10-14T06:01:41.503Z,14.55
2017-10-14T06:03:34.512Z,14.51
2017-10-14T06:04:34.553Z,14.54
2017-10-14T06:06:27.552Z,14.48
2017-10-14T06:07:27.612Z,14.53
2017-10-14T06:09:20.628Z,14.50
2017-10-14T06:10:20.673Z,14.45
2017-10-14T06:12:13.664Z,14.50
2017-10-14T06:13:13.727Z,14.45
2017-10-14T06:15:06.745Z,14.55
2017-10-14T06:16:06.785Z,14.45
2017-10-14T06:17:59.804Z,14.48
2017-10-14T06:18:59.843Z,14.43
2017-10-14T06:20:52.833Z,14.50
2017-10-14T06:21:52.893Z,14.44
2017-10-14T06:23:45.910Z,14.63
2017-10-14T06:24:45.952Z,14.60
2017-10-14T06:26:39.453Z,14.65
2017-10-14T06:27:39.513Z,14.63
2017-10-14T06:29:32.526Z,14.66
2017-10-14T06:30:32.560Z,14.59
2017-10-14T06:32:25.550Z,14.73
2017-10-14T06:33:25.612Z,14.77
2017-10-14T06:35:18.619Z,14.84
2017-10-14T06:36:18.661Z,14.82
2017-10-14T06:38:11.672Z,14.94
2017-10-14T06:39:11.714Z,15.00
2017-10-14T06:41:04.706Z,15.11
2017-10-14T06:42:04.766Z,15.03
2017-10-14T06:43:57.777Z,15.07
2017-10-14T06:44:57.818Z,15.11
2017-10-14T06:46:50.808Z,15.18
2017-10-14T06:47:50.871Z,15.17
2017-10-14T06:49:43.879Z,15.29
2017-10-14T06:50:43.922Z,15.27
2017-10-14T06:52:36.910Z,15.36
2017-10-14T06:53:36.986Z,15.39
2017-10-14T06:55:29.987Z,15.36
2017-10-14T06:56:30.061Z,15.42
2017-10-14T06:58:23.046Z,15.43
2017-10-14T06:59:23.082Z,15.54
2017-10-14T07:01:16.088Z,15.59
2017-10-14T07:02:16.143Z,15.59
2017-10-14T07:04:09.159Z,15.62
2017-10-14T07:05:09.201Z,15.65
2017-10-14T07:07:02.196Z,15.64
2017-10-14T07:08:02.250Z,15.64
2017-10-14T07:09:55.286Z,15.65
2017-10-14T07:10:55.304Z,15.68
2017-10-14T07:12:48.302Z,15.79
2017-10-14T07:13:48.369Z,15.77
2017-10-14T07:15:41.384Z,15.80
2017-10-14T07:16:41.424Z,15.91
2017-10-14T07:18:34.446Z,16.15
2017-10-14T07:19:34.491Z,16.58
2017-10-14T07:21:27.485Z,18.56
2017-10-14T07:22:27.539Z,19.36
2017-10-14T07:24:20.630Z,20.69
2017-10-14T07:25:20.591Z,21.20
2017-10-14T07:27:13.593Z,21.77
2017-10-14T07:28:13.655Z,21.96
2017-10-14T07:30:06.668Z,22.00
2017-10-14T07:31:06.712Z,22.44
2017-10-14T07:32:59.702Z,22.70
2017-10-14T07:33:59.766Z,22.98
2017-10-14T07:35:52.786Z,23.32
2017-10-14T07:36:52.848Z,23.59
2017-10-14T07:38:45.855Z,23.24
2017-10-14T07:39:45.895Z,23.20
2017-10-14T07:41:38.901Z,23.37
2017-10-14T07:42:38.953Z,23.13
2017-10-14T07:44:31.979Z,23.73
2017-10-14T07:45:32.033Z,23.62
2017-10-14T07:47:25.035Z,24.13
2017-10-14T07:48:25.107Z,24.36
2017-10-14T07:50:18.132Z,25.08
2017-10-14T07:51:18.164Z,25.36
2017-10-14T07:53:11.193Z,25.08
2017-10-14T07:54:11.246Z,25.03
2017-10-14T07:56:04.297Z,24.20
2017-10-14T07:57:04.345Z,24.54
2017-10-14T07:58:57.339Z,24.92
2017-10-14T07:59:57.389Z,24.76
2017-10-14T08:01:50.390Z,25.72
2017-10-14T08:02:50.454Z,26.21
2017-10-14T08:04:43.480Z,25.83
2017-10-14T08:05:43.526Z,26.05
2017-10-14T08:07:36.565Z,26.23
2017-10-14T08:08:36.599Z,26.38
2017-10-14T08:10:29.620Z,26.75
2017-10-14T08:11:29.670Z,26.92
2017-10-14T08:13:22.667Z,27.22
2017-10-14T08:14:22.734Z,27.02
2017-10-14T08:16:15.754Z,26.38
2017-10-14T08:17:15.801Z,26.10
2017-10-14T08:19:08.822Z,26.60
2017-10-14T08:20:08.869Z,26.47
2017-10-14T08:22:01.868Z,26.90
2017-10-14T08:23:01.938Z,27.14
2017-10-14T08:24:54.957Z,27.08
2017-10-14T08:25:55.005Z,26.84
2017-10-14T08:27:48.006Z,25.44
2017-10-14T08:28:48.076Z,25.62
2017-10-14T08:30:41.132Z,25.66
2017-10-14T08:31:41.144Z,26.05
2017-10-14T08:33:34.149Z,26.77
2017-10-14T08:34:34.218Z,26.56
2017-10-14T08:36:27.239Z,26.37
2017-10-14T08:37:27.285Z,25.93
2017-10-14T08:39:20.309Z,25.41
2017-10-14T08:40:20.356Z,25.70
2017-10-14T08:42:13.365Z,25.81
2017-10-14T08:43:13.433Z,26.13
2017-10-14T08:45:06.453Z,26.19
2017-10-14T08:46:06.501Z,26.55
2017-10-14T08:47:59.502Z,26.19
2017-10-14T08:48:59.573Z,25.65
2017-10-14T08:50:52.593Z,26.03
2017-10-14T08:51:52.640Z,25.90
2017-10-14T08:53:45.645Z,25.99
2017-10-14T08:54:45.711Z,26.21
2017-10-14T08:56:38.732Z,25.63
2017-10-14T08:57:38.781Z,25.87
2017-10-14T08:59:32.311Z,25.21
2017-10-14T09:00:32.356Z,24.92
2017-10-14T09:02:25.356Z,24.51
2017-10-14T09:03:25.426Z,24.30
2017-10-14T09:05:18.447Z,23.62
2017-10-14T09:06:18.493Z,23.28
2017-10-14T09:08:11.493Z,22.44
2017-10-14T09:09:11.560Z,22.11
2017-10-14T09:11:04.591Z,21.80
2017-10-14T09:12:04.626Z,21.52
2017-10-14T09:13:57.625Z,21.48
2017-10-14T09:14:57.693Z,21.33
2017-10-14T09:16:50.710Z,21.27
2017-10-14T09:17:50.785Z,21.27
2017-10-14T09:19:43.772Z,21.25
2017-10-14T09:20:43.819Z,21.21
2017-10-14T09:22:36.827Z,21.12
2017-10-14T09:23:36.893Z,21.21
2017-10-14T09:25:29.923Z,21.15
2017-10-14T09:26:29.960Z,21.15
2017-10-14T09:28:22.958Z,21.00
2017-10-14T09:29:23.025Z,20.87
2017-10-14T09:31:16.054Z,20.77
2017-10-14T09:32:16.087Z,20.87
2017-10-14T09:34:09.086Z,20.84
2017-10-14T09:35:09.155Z,20.96
2017-10-14T09:37:02.171Z,21.00
2017-10-14T09:38:02.216Z,20.97
2017-10-14T09:39:55.239Z,21.00
2017-10-14T09:40:55.629Z,21.02
2017-10-14T09:42:48.282Z,21.00
2017-10-14T09:43:48.347Z,20.97
2017-10-14T09:45:41.365Z,20.95
2017-10-14T09:46:41.409Z,20.97
2017-10-14T09:48:34.415Z,20.96
2017-10-14T09:49:34.478Z,20.99
2017-10-14T09:51:27.493Z,21.02
2017-10-14T09:52:27.537Z,21.03
2017-10-14T09:54:20.536Z,21.02
2017-10-14T09:55:20.598Z,21.06
2017-10-14T09:57:13.636Z,21.17
2017-10-14T09:58:13.667Z,21.15
2017-10-14T10:00:07.191Z,21.27
2017-10-14T10:01:07.231Z,21.33
2017-10-14T10:03:00.229Z,21.29
2017-10-14T10:04:00.293Z,21.20
2017-10-14T10:05:53.312Z,21.36
2017-10-14T10:06:53.355Z,21.24
2017-10-14T10:08:46.352Z,21.30
2017-10-14T10:09:46.419Z,21.37
2017-10-14T10:11:39.438Z,21.35
2017-10-14T10:12:39.489Z,21.39
2017-10-14T10:14:32.490Z,21.40
2017-10-14T10:15:32.557Z,21.48
2017-10-14T10:17:25.610Z,21.43
2017-10-14T10:18:25.621Z,21.43
2017-10-14T10:20:18.637Z,21.29
2017-10-14T10:21:18.684Z,21.42
2017-10-14T10:23:11.687Z,21.40
2017-10-14T10:24:11.751Z,21.45
2017-10-14T10:26:04.766Z,21.54
2017-10-14T10:27:04.810Z,21.42
2017-10-14T10:28:57.814Z,21.50
2017-10-14T10:29:57.875Z,21.54
2017-10-14T10:31:50.899Z,21.51
2017-10-14T10:32:50.936Z,21.69
2017-10-14T10:34:43.930Z,21.79
2017-10-14T10:35:43.997Z,21.76
2017-10-14T10:37:37.015Z,21.76
2017-10-14T10:38:37.060Z,21.77
2017-10-14T10:40:30.093Z,21.73
2017-10-14T10:41:30.124Z,21.80
2017-10-14T10:43:23.118Z,21.79
2017-10-14T10:44:23.183Z,21.79
2017-10-14T10:46:16.210Z,22.00
2017-10-14T10:47:16.246Z,21.95
2017-10-14T10:49:09.242Z,22.04
2017-10-14T10:50:09.339Z,22.04
2017-10-14T10:52:02.337Z,22.15
2017-10-14T10:53:02.380Z,22.10
2017-10-14T10:54:55.379Z,22.11
2017-10-14T10:55:55.446Z,22.13
2017-10-14T10:57:48.482Z,21.92
2017-10-14T10:58:48.510Z,21.91
2017-10-14T11:00:41.526Z,21.92
2017-10-14T11:01:41.574Z,22.07
2017-10-14T11:03:34.568Z,22.10
2017-10-14T11:04:34.642Z,22.04
2017-10-14T11:06:27.654Z,22.17
2017-10-14T11:07:27.699Z,22.20
2017-10-14T11:09:20.697Z,22.29
2017-10-14T11:10:20.765Z,22.30
2017-10-14T11:12:13.785Z,22.30
2017-10-14T11:13:13.829Z,22.26
2017-10-14T11:15:06.825Z,22.23
2017-10-14T11:16:06.892Z,22.30
2017-10-14T11:17:59.910Z,22.18
2017-10-14T11:19:00.010Z,22.22
2017-10-14T11:20:53.033Z,22.18
2017-10-14T11:21:53.080Z,22.20
2017-10-14T11:23:46.352Z,22.25
2017-10-14T11:24:46.148Z,22.25
2017-10-14T11:26:39.168Z,22.38
2017-10-14T11:27:39.212Z,22.45
2017-10-14T11:29:32.230Z,22.50
2017-10-14T11:30:32.412Z,22.54
2017-10-14T11:32:25.339Z,22.63
2017-10-14T11:33:25.356Z,22.63
2017-10-14T11:35:18.353Z,22.50
2017-10-14T11:36:18.420Z,22.53
2017-10-14T11:38:11.431Z,22.53
2017-10-14T11:39:11.494Z,22.44
2017-10-14T11:41:04.614Z,22.54
2017-10-14T11:42:04.539Z,22.54
2017-10-14T11:43:57.576Z,22.72
2017-10-14T11:44:57.619Z,22.69
2017-10-14T11:46:50.620Z,22.63
2017-10-14T11:47:50.667Z,22.70
2017-10-14T11:49:43.663Z,22.73
2017-10-14T11:50:43.731Z,22.81
2017-10-14T11:52:36.760Z,22.85
2017-10-14T11:53:36.816Z,22.84
2017-10-14T11:55:29.815Z,22.69
2017-10-14T11:56:29.883Z,22.65
2017-10-14T11:58:22.891Z,22.62
2017-10-14T11:59:22.937Z,22.53
2017-10-14T12:01:15.984Z,22.57
2017-10-14T12:02:16.032Z,22.70
2017-10-14T12:04:09.029Z,22.78
2017-10-14T12:05:09.094Z,22.72
2017-10-14T12:07:02.122Z,23.00
2017-10-14T12:08:02.165Z,23.00
2017-10-14T12:09:55.171Z,22.78
2017-10-14T12:10:55.231Z,22.76
2017-10-14T12:12:48.252Z,22.94
2017-10-14T12:13:48.299Z,22.75
2017-10-14T12:15:41.299Z,22.94
2017-10-14T12:16:41.364Z,22.93
2017-10-14T12:18:34.387Z,23.09
2017-10-14T12:19:34.432Z,23.03
2017-10-14T12:21:28.462Z,23.03
2017-10-14T12:22:28.514Z,22.93
2017-10-14T12:24:21.510Z,22.93
2017-10-14T12:25:21.584Z,22.90
2017-10-14T12:27:14.604Z,22.94
2017-10-14T12:28:14.645Z,23.02
2017-10-14T12:30:07.658Z,23.00
2017-10-14T12:31:07.713Z,22.96
2017-10-14T12:33:00.822Z,22.84
2017-10-14T12:34:00.776Z,22.93
2017-10-14T12:35:53.791Z,22.90
2017-10-14T12:36:53.840Z,22.94
2017-10-14T12:38:46.875Z,22.91
2017-10-14T12:39:46.916Z,23.02
2017-10-14T12:41:39.935Z,22.83
2017-10-14T12:42:39.980Z,22.85
2017-10-14T12:44:32.978Z,22.94
2017-10-14T12:45:33.043Z,22.93
2017-10-14T12:47:26.065Z,22.94
2017-10-14T12:48:26.111Z,22.98
2017-10-14T12:50:19.110Z,22.90
2017-10-14T12:51:19.176Z,22.81
2017-10-14T12:53:12.196Z,22.80
2017-10-14T12:54:12.242Z,22.72
2017-10-14T12:56:05.244Z,22.81
2017-10-14T12:57:05.313Z,22.75
2017-10-14T12:58:58.336Z,22.76
2017-10-14T12:59:58.385Z,22.76
2017-10-14T13:01:51.412Z,22.84
2017-10-14T13:02:51.461Z,22.94
2017-10-14T13:04:44.463Z,22.87
2017-10-14T13:05:44.527Z,22.90
2017-10-14T13:07:37.547Z,22.87
2017-10-14T13:08:37.589Z,22.84
2017-10-14T13:10:30.589Z,22.83
2017-10-14T13:11:30.655Z,22.84
2017-10-14T13:13:23.875Z,22.88
2017-10-14T13:14:23.918Z,22.84
2017-10-14T13:16:16.914Z,22.76
2017-10-14T13:17:16.985Z,22.70
2017-10-14T13:19:10.023Z,22.69
2017-10-14T13:20:10.046Z,22.83
2017-10-14T13:22:03.065Z,22.75
2017-10-14T13:23:03.108Z,22.66
2017-10-14T13:24:56.108Z,22.66
2017-10-14T13:25:56.177Z,22.80
2017-10-14T13:27:49.195Z,22.80
2017-10-14T13:28:49.238Z,22.70
2017-10-14T13:30:42.235Z,22.69
2017-10-14T13:31:42.303Z,22.76
2017-10-14T13:33:35.336Z,22.78
2017-10-14T13:34:35.369Z,22.78
2017-10-14T13:36:28.370Z,22.75
2017-10-14T13:37:28.448Z,22.73
2017-10-14T13:39:21.459Z,22.68
2017-10-14T13:40:21.505Z,22.66
2017-10-14T13:42:14.527Z,22.55
2017-10-14T13:43:14.576Z,22.54
2017-10-14T13:45:07.575Z,22.62
2017-10-14T13:46:07.632Z,22.57
2017-10-14T13:48:00.654Z,22.54
2017-10-14T13:49:00.696Z,22.62
2017-10-14T13:50:53.692Z,22.57
2017-10-14T13:51:53.779Z,22.54
2017-10-14T13:53:46.781Z,22.55
2017-10-14T13:54:46.826Z,22.57
2017-10-14T13:56:39.822Z,22.70
2017-10-14T13:57:39.889Z,22.69
2017-10-14T13:59:33.431Z,22.88
2017-10-14T14:00:33.469Z,22.83
2017-10-14T14:02:26.502Z,22.73
2017-10-14T14:03:26.560Z,22.80
2017-10-14T14:05:19.548Z,22.78
2017-10-14T14:06:19.622Z,22.68
2017-10-14T14:08:12.643Z,22.69
2017-10-14T14:09:12.685Z,22.65
2017-10-14T14:11:05.682Z,22.62
2017-10-14T14:12:05.751Z,22.63
2017-10-14T14:13:58.771Z,22.55
2017-10-14T14:14:58.817Z,22.59
2017-10-14T14:16:51.815Z,22.57
2017-10-14T14:17:51.881Z,22.57
2017-10-14T14:19:44.899Z,22.53
2017-10-14T14:20:44.952Z,22.53
2017-10-14T14:22:37.967Z,22.48
2017-10-14T14:23:38.009Z,22.45
2017-10-14T14:25:31.010Z,22.47
2017-10-14T14:26:31.104Z,22.48
2017-10-14T14:28:24.098Z,22.32
2017-10-14T14:29:24.140Z,22.28
2017-10-14T14:31:17.141Z,22.28
2017-10-14T14:32:17.210Z,22.29
2017-10-14T14:34:10.233Z,22.30
2017-10-14T14:35:10.272Z,22.36
2017-10-14T14:37:03.269Z,22.33
2017-10-14T14:38:03.334Z,22.30
2017-10-14T14:39:56.352Z,22.33
2017-10-14T14:40:56.397Z,22.32
2017-10-14T14:42:49.426Z,22.23
2017-10-14T14:43:49.482Z,22.26
2017-10-14T14:45:42.486Z,22.25
2017-10-14T14:46:42.554Z,22.20
2017-10-14T14:48:35.552Z,22.14
2017-10-14T14:49:35.598Z,22.28
2017-10-14T14:51:28.609Z,22.28
2017-10-14T14:52:28.659Z,22.08
2017-10-14T14:54:21.678Z,22.18
2017-10-14T14:55:21.726Z,22.02
2017-10-14T14:57:14.723Z,22.15
2017-10-14T14:58:14.801Z,22.15
2017-10-14T15:00:08.315Z,22.07
2017-10-14T15:01:08.377Z,22.02
2017-10-14T15:03:01.409Z,21.95
2017-10-14T15:04:01.431Z,22.02
2017-10-14T15:05:54.430Z,21.99
2017-10-14T15:06:54.508Z,21.98
2017-10-14T15:08:47.551Z,21.89
2017-10-14T15:09:47.563Z,21.89
2017-10-14T15:11:40.556Z,21.77
2017-10-14T15:12:40.623Z,21.73
2017-10-14T15:14:33.643Z,21.80
2017-10-14T15:15:33.706Z,21.80
2017-10-14T15:17:26.686Z,21.77
2017-10-14T15:18:26.751Z,21.67
2017-10-14T15:20:19.769Z,21.72
2017-10-14T15:21:19.825Z,21.69
2017-10-14T15:23:12.833Z,21.73
2017-10-14T15:24:12.881Z,21.70
2017-10-14T15:26:05.883Z,21.66
2017-10-14T15:27:05.941Z,21.66
2017-10-14T15:28:58.960Z,21.64
2017-10-14T15:29:59.004Z,21.55
2017-10-14T15:31:52.000Z,21.52
2017-10-14T15:32:52.068Z,21.51
2017-10-14T15:34:45.084Z,21.54
2017-10-14T15:35:45.128Z,21.42
2017-10-14T15:37:38.136Z,21.45
2017-10-14T15:38:38.191Z,21.51
2017-10-14T15:40:31.216Z,21.43
2017-10-14T15:41:31.261Z,21.40
2017-10-14T15:43:24.271Z,21.32
2017-10-14T15:44:24.318Z,21.29
2017-10-14T15:46:17.312Z,21.35
2017-10-14T15:47:17.432Z,21.43
2017-10-14T15:49:10.416Z,21.30
2017-10-14T15:50:10.451Z,21.27
2017-10-14T15:52:03.449Z,21.32
2017-10-14T15:53:03.514Z,21.21
2017-10-14T15:54:56.530Z,21.24
2017-10-14T15:55:56.576Z,21.22
2017-10-14T15:57:49.579Z,21.17
2017-10-14T15:58:49.642Z,21.11
2017-10-14T16:00:42.668Z,20.99
2017-10-14T16:01:42.709Z,20.93
2017-10-14T16:03:35.730Z,20.97
2017-10-14T16:04:35.784Z,21.00
2017-10-14T16:06:28.792Z,21.02
2017-10-14T16:07:28.845Z,20.95
2017-10-14T16:09:21.867Z,20.95
2017-10-14T16:10:21.942Z,20.90
2017-10-14T16:12:14.921Z,20.87
2017-10-14T16:13:14.971Z,20.74
2017-10-14T16:15:07.987Z,20.77
2017-10-14T16:16:08.032Z,20.72
2017-10-14T16:18:01.029Z,20.67
2017-10-14T16:19:01.094Z,20.65
2017-10-14T16:20:54.109Z,20.56
2017-10-14T16:21:54.155Z,20.59
2017-10-14T16:23:47.178Z,20.56
2017-10-14T16:24:47.216Z,20.52
2017-10-14T16:26:40.214Z,20.40
2017-10-14T16:27:40.278Z,20.28
2017-10-14T16:29:33.298Z,20.28
2017-10-14T16:30:33.354Z,20.24
2017-10-14T16:32:26.363Z,20.16
2017-10-14T16:33:26.411Z,20.16
2017-10-14T16:35:19.422Z,20.03
2017-10-14T16:36:19.467Z,20.03
2017-10-14T16:38:12.465Z,19.95
2017-10-14T16:39:12.530Z,19.92
2017-10-14T16:41:05.600Z,19.94
2017-10-14T16:42:05.592Z,19.81
2017-10-14T16:43:58.632Z,19.81
2017-10-14T16:44:58.675Z,19.79
2017-10-14T16:46:51.678Z,19.64
2017-10-14T16:47:51.740Z,19.54
2017-10-14T16:49:44.779Z,19.54
2017-10-14T16:50:44.811Z,19.54
2017-10-14T16:52:37.835Z,19.45
2017-10-14T16:53:37.888Z,19.37
2017-10-14T16:55:30.911Z,19.44
2017-10-14T16:56:30.947Z,19.31
2017-10-14T16:58:23.950Z,19.31
2017-10-14T16:59:24.029Z,19.30
2017-10-14T17:01:18.540Z,19.22
2017-10-14T17:02:18.854Z,19.21
2017-10-14T17:04:11.604Z,19.27
2017-10-14T17:05:11.645Z,19.08
2017-10-14T17:07:04.650Z,19.15
2017-10-14T17:08:04.709Z,19.08
2017-10-14T17:09:57.767Z,19.04
2017-10-14T17:10:57.783Z,18.99
2017-10-14T17:12:50.780Z,18.90
2017-10-14T17:13:50.837Z,18.92
2017-10-14T17:15:43.866Z,18.92
2017-10-14T17:16:43.916Z,18.89
2017-10-14T17:18:36.933Z,18.80
2017-10-14T17:19:37.925Z,18.75
2017-10-14T17:21:29.999Z,18.63
2017-10-14T17:22:30.044Z,18.62
2017-10-14T17:24:23.065Z,18.53
2017-10-14T17:25:23.104Z,18.45
2017-10-14T17:27:16.099Z,18.45
2017-10-14T17:28:16.165Z,18.47
2017-10-14T17:30:09.205Z,18.35
2017-10-14T17:31:09.230Z,18.35
2017-10-14T17:33:02.223Z,18.34
2017-10-14T17:34:02.290Z,18.34
2017-10-14T17:35:55.306Z,18.15
2017-10-14T17:36:55.344Z,18.15
2017-10-14T17:38:48.342Z,18.05
2017-10-14T17:39:48.405Z,18.05
2017-10-14T17:41:41.422Z,18.04
2017-10-14T17:42:41.481Z,18.04
2017-10-14T17:44:34.506Z,17.98
2017-10-14T17:45:34.554Z,17.98
2017-10-14T17:47:27.535Z,17.92
2017-10-14T17:48:27.610Z,17.95
2017-10-14T17:50:20.613Z,17.98
2017-10-14T17:51:20.655Z,17.98
2017-10-14T17:53:13.652Z,17.87
2017-10-14T17:54:13.716Z,17.86
2017-10-14T17:56:06.733Z,17.80
2017-10-14T17:57:06.774Z,17.76
2017-10-14T17:58:59.774Z,17.64
2017-10-14T17:59:59.839Z,17.67
2017-10-14T18:01:53.362Z,17.57
2017-10-14T18:02:53.404Z,17.70
2017-10-14T18:04:46.413Z,17.86
2017-10-14T18:05:46.459Z,17.76
2017-10-14T18:07:39.458Z,17.92
2017-10-14T18:08:39.519Z,17.87
2017-10-14T18:10:32.548Z,17.97
2017-10-14T18:11:32.612Z,17.86
2017-10-14T18:13:25.592Z,17.82
2017-10-14T18:14:25.630Z,17.68
2017-10-14T18:16:18.647Z,17.64
2017-10-14T18:17:18.689Z,17.65
2017-10-14T18:19:11.703Z,17.59
2017-10-14T18:20:11.759Z,17.64
2017-10-14T18:22:04.761Z,17.67
2017-10-14T18:23:04.805Z,17.57
2017-10-14T18:24:57.823Z,17.64
2017-10-14T18:25:57.861Z,17.63
2017-10-14T18:27:50.858Z,17.65
2017-10-14T18:28:50.924Z,17.52
2017-10-14T18:30:43.937Z,17.59
2017-10-14T18:31:43.980Z,17.48
2017-10-14T18:33:36.976Z,17.46